Hovedside
METAR-TAF:

METAR-TAF

Lufthavner :

Vientiane, Laos

breddegrad: 17-57N, lengdegrad: 102-34E, høyde over havet: 171 m

Gjeldene værobservasjon

Denne rapporten ble laget for 2 timer og 34 minutter siden, klokken 16:00 UTC
Vind 2 kt fra Sør-sørøst
Temperatur 29°C
Luftfuktighet 74%
Trykk 1007 hPa
Sikt: 3000 m
dis

METAR: VLVT 241600Z 16002KT 3000 BR NSC 29/24 Q1007 NOSIG

Tid: 01:34 (18:34 UTC)

Varsel

Denne rapporten ble laget for 1 time og 34 minutter siden, klokken 17:00 UTC
Varsel gyldig fra 24. klokken 18 UTC til 25. klokken 18 UTC
Vind 4 kt fra Sør-sørøst
Sikt: 3000 m
Spredte skyer i en høyde av 5000 ft
Spredte skyer i en høyde av 10000 ft
dis
Midlertidig
fra 25. klokken 00 UTC til 25. klokken 05 UTC
Sikt: 5000 m
Få skyer i en høyde av 2000 ft
Spredte skyer i en høyde av 5000 ft
dis

TAF: VLVT 241700Z 2418/2518 16004KT 3000 BR SCT050 SCT100 TEMPO 2500/2505 5000 BR FEW020 SCT050

Værobservasjoner og værvarsel for over 4000 flyplasser (METAR- og TAF-rapporter).

Tilgjengelige stasjoner er representert av de røde og gule prikkene på kartet.

Hold musepekeren over prikken for å se navnet på stasjonen.

Klikk så for å se værobservasjoner og -varsler.

For å forandre kartet kan du klikke på den grønne knappen med svart kryss for å zoome inn, på den grønne knappen med strek for å zoome ut, eller på de grønne pilene for å se tilstøtende kart.


METAR-TAF: